Pays
Station

 

Conditions  météo  pour  Orsta-Volda/Hovden  -  Norvège    Norvège

  
8 °C
    
 
 

METAR pour Orsta-Volda/Hovden :

ENOV 192120Z 22015KT 9999 VCSH FEW025 SCT030 BKN035 08/04 Q1008 RMK WIND 2175FT 23025KT

 

Voici le bulletin pour Orsta-Volda/Hovden - Norvège.
 
Le bulletin a été fait il y a 5 heures et 40 minutes, à 21:20 UTC .
Le vent soufflait à la vitesse de 7.7 mètres par seconde de Sud-ouest (220°).
 
La température était de 8 °C, avec un point de rosée à 4 °C.
La pression atmosphérique était de 1008 hPa.
L'humidité relative était de 75.8%.
 
Il y avait 1 à 2/8ème de nébulosité à une hauteur de 762 mètres, 3 à 4/8ème de nébulosité à une hauteur de 914 mètres et 5 à 7/8ème de nébulosité à une hauteur de 1067 mètres.
 
La visibilité globale était de supérieure à 10 kilomètres.
 
Actuellement averses de à proximité.

 
 
 

Pays :   A   B   C   D   E   F   G   H   I   J   K   L   M   N   O   P   Q   R   S   T   U   V   W   Y   Z

 

Partenaires :  Info Météo avec Met'info
Météo Marine avec MeteoMarine.net
Infos Site  |  Infos Légales  |  Crédits  |  Confidentialité
Contactez-nous  |  Ajouter aux favoris
© 2013-2018 METAR - Tous droits réservés